Time;durP1;ratioP1;P1;durP2;ratioP2;P2;SDS_P1;SDS_P2;PMS_P1;PMS_P2;Temp;Humidity;BMP_temperature;BMP_pressure;BME280_temperature;BME280_humidity;BME280_pressure;Samples;Min_cycle;Max_cycle;Signal;HPM_P1;HPM_P2
2023/03/04 00:00:45;;;;;;;43.10;25.58;;;;;;;-3.42;100.00;93360.13;2035119;28;20030;-81
2023/03/04 00:01:46;;;;;;;46.50;26.58;;;;;;;-3.41;100.00;93361.66;2038631;29;20150;-84
2023/03/04 00:02:47;;;;;;;45.60;25.92;;;;;;;-3.43;100.00;93358.56;2032118;29;20436;-83
2023/03/04 00:03:48;;;;;;;46.75;27.00;;;;;;;-3.45;100.00;93361.53;2033453;29;20024;-83
2023/03/04 00:04:49;;;;;;;45.17;26.30;;;;;;;-3.52;100.00;93357.91;2053486;28;20074;-85
2023/03/04 00:05:50;;;;;;;44.65;26.15;;;;;;;-3.54;100.00;93353.00;2037877;28;20030;-84
2023/03/04 00:06:51;;;;;;;50.75;27.65;;;;;;;-3.55;100.00;93354.09;2037797;29;20054;-82
2023/03/04 00:07:52;;;;;;;46.58;27.33;;;;;;;-3.59;100.00;93358.44;2042136;29;20023;-85
2023/03/04 00:08:53;;;;;;;47.58;27.15;;;;;;;-3.60;100.00;93355.06;2035887;29;20028;-85
2023/03/04 00:09:54;;;;;;;47.47;27.40;;;;;;;-3.60;100.00;93352.44;2032162;29;20743;-83
2023/03/04 00:10:55;;;;;;;48.65;27.05;;;;;;;-3.59;100.00;93359.19;2042634;28;20020;-83
2023/03/04 00:11:56;;;;;;;47.05;26.40;;;;;;;-3.57;100.00;93351.78;2034507;29;20051;-84
2023/03/04 00:12:57;;;;;;;46.60;26.17;;;;;;;-3.61;100.00;93350.13;2027631;29;20837;-83
2023/03/04 00:13:58;;;;;;;47.72;27.02;;;;;;;-3.60;100.00;93355.06;2033629;29;20347;-83
2023/03/04 00:14:59;;;;;;;46.47;26.70;;;;;;;-3.64;100.00;93356.03;2047371;29;20034;-81
2023/03/04 00:16:00;;;;;;;46.72;27.83;;;;;;;-3.73;100.00;93353.47;2035390;29;20171;-82
2023/03/04 00:17:03;;;;;;;46.80;26.05;;;;;;;-3.63;100.00;93347.84;2033581;29;20131;-83
2023/03/04 00:18:04;;;;;;;47.60;27.67;;;;;;;-3.61;100.00;93352.75;2043004;28;20042;-82
2023/03/04 00:19:05;;;;;;;49.13;25.92;;;;;;;-3.67;100.00;93359.25;2049296;28;20054;-81
2023/03/04 00:20:07;;;;;;;50.78;27.67;;;;;;;-3.69;100.00;93354.34;2045022;28;20046;-85
2023/03/04 00:21:08;;;;;;;46.75;26.60;;;;;;;-3.68;100.00;93352.50;2045695;28;20114;-81
2023/03/04 00:22:09;;;;;;;45.28;26.83;;;;;;;-3.67;100.00;93346.19;2047207;28;20444;-84
2023/03/04 00:23:10;;;;;;;45.80;27.30;;;;;;;-3.59;100.00;93347.97;2038896;28;20075;-85
2023/03/04 00:24:11;;;;;;;47.72;27.33;;;;;;;-3.58;100.00;93347.66;2027553;29;20489;-82
2023/03/04 00:25:15;;;;;;;50.20;28.02;;;;;;;-3.62;100.00;93344.16;2033274;29;20044;-83
2023/03/04 00:26:17;;;;;;;46.45;26.35;;;;;;;-3.70;100.00;93349.44;2035600;29;20371;-83
2023/03/04 00:27:18;;;;;;;52.47;27.02;;;;;;;-3.70;100.00;93352.06;2033733;29;20133;-84
2023/03/04 00:28:19;;;;;;;51.75;27.13;;;;;;;-3.69;100.00;93353.56;2033265;29;20442;-85
2023/03/04 00:29:21;;;;;;;50.15;27.90;;;;;;;-3.60;100.00;93349.03;2035445;29;20023;-84
2023/03/04 00:30:22;;;;;;;49.70;26.92;;;;;;;-3.64;100.00;93351.56;2025371;29;20021;-84
2023/03/04 00:31:25;;;;;;;51.88;29.52;;;;;;;-3.62;100.00;93348.63;2041424;29;20176;-83
2023/03/04 00:32:27;;;;;;;51.22;29.33;;;;;;;-3.59;100.00;93347.97;2033581;29;20024;-82
2023/03/04 00:33:28;;;;;;;47.70;27.55;;;;;;;-3.67;100.00;93354.03;2033315;29;20083;-82
2023/03/04 00:34:29;;;;;;;49.15;28.77;;;;;;;-3.60;100.00;93354.25;2025672;29;20024;-81
2023/03/04 00:35:30;;;;;;;51.22;29.02;;;;;;;-3.65;100.00;93349.25;2035511;29;20511;-84
2023/03/04 00:36:31;;;;;;;51.08;27.63;;;;;;;-3.70;100.00;93355.44;2035380;29;20024;-81
2023/03/04 00:37:32;;;;;;;51.03;30.02;;;;;;;-3.72;100.00;93352.38;2041141;29;20111;-83
2023/03/04 00:38:33;;;;;;;54.05;29.77;;;;;;;-3.78;100.00;93347.66;2035426;29;20024;-83
2023/03/04 00:39:34;;;;;;;48.83;28.52;;;;;;;-3.72;100.00;93352.38;2027895;29;20463;-82
2023/03/04 00:40:35;;;;;;;50.90;28.80;;;;;;;-3.68;100.00;93345.44;2029476;29;20039;-81
2023/03/04 00:41:36;;;;;;;59.47;29.75;;;;;;;-3.73;100.00;93352.69;2031293;29;20024;-85
2023/03/04 00:42:37;;;;;;;53.80;28.42;;;;;;;-3.79;100.00;93352.13;2039354;29;20100;-82
2023/03/04 00:43:38;;;;;;;55.70;28.65;;;;;;;-3.75;100.00;93347.78;2041020;29;20489;-85
2023/03/04 00:44:39;;;;;;;50.92;27.83;;;;;;;-3.73;100.00;93353.47;2043515;28;20683;-83
2023/03/04 00:45:41;;;;;;;52.55;29.13;;;;;;;-3.72;100.00;93355.00;2042530;29;20059;-85
2023/03/04 00:46:42;;;;;;;54.40;29.02;;;;;;;-3.72;100.00;93341.19;2040982;29;20023;-84
2023/03/04 00:47:43;;;;;;;51.45;28.65;;;;;;;-3.73;100.00;93342.25;2043152;29;20023;-82
2023/03/04 00:48:44;;;;;;;51.10;28.55;;;;;;;-3.73;100.00;93347.47;2040072;29;20030;-82
2023/03/04 00:49:45;;;;;;;52.90;29.15;;;;;;;-3.81;100.00;93349.06;2033127;29;20035;-82
2023/03/04 00:50:46;;;;;;;52.35;29.15;;;;;;;-3.81;100.00;93349.06;2029906;29;20016;-82
2023/03/04 00:51:47;;;;;;;49.20;28.10;;;;;;;-3.80;100.00;93343.53;2039933;29;20031;-84
2023/03/04 00:52:48;;;;;;;53.47;29.02;;;;;;;-3.87;100.00;93340.66;2042277;29;20032;-83
2023/03/04 00:53:51;;;;;;;53.17;29.83;;;;;;;-3.66;100.00;93345.09;2047317;28;20032;-83
2023/03/04 00:54:52;;;;;;;52.20;27.30;;;;;;;-3.67;100.00;93339.13;2039861;29;20019;-85
2023/03/04 00:55:53;;;;;;;49.63;28.40;;;;;;;-3.76;100.00;93341.03;2040470;28;20350;-84
2023/03/04 00:56:55;;;;;;;53.30;28.95;;;;;;;-3.75;100.00;93342.56;2033729;29;20023;-83
2023/03/04 00:57:56;;;;;;;54.40;29.85;;;;;;;-3.81;100.00;93338.63;2025944;29;20520;-83
2023/03/04 00:58:58;;;;;;;52.42;29.13;;;;;;;-3.81;100.00;93330.81;2024225;29;20498;-82
2023/03/04 01:00:00;;;;;;;48.03;27.30;;;;;;;-3.89;100.00;93337.63;2026024;29;20024;-83
2023/03/04 01:01:01;;;;;;;55.42;29.73;;;;;;;-3.95;100.00;93338.91;2026720;29;20036;-85
2023/03/04 01:02:03;;;;;;;48.28;28.10;;;;;;;-3.85;100.00;93337.75;2032555;29;20083;-84
2023/03/04 01:03:05;;;;;;;45.60;27.05;;;;;;;-3.81;100.00;93341.25;2040883;29;20055;-81
2023/03/04 01:04:06;;;;;;;48.83;27.95;;;;;;;-3.89;100.00;93336.84;2043623;28;20031;-82
2023/03/04 01:05:08;;;;;;;55.78;29.20;;;;;;;-3.88;100.00;93344.34;2040368;29;20030;-83
2023/03/04 01:06:11;;;;;;;52.67;27.92;;;;;;;-3.88;100.00;93339.13;2023275;29;20033;-82
2023/03/04 01:07:12;;;;;;;52.10;28.23;;;;;;;-3.90;100.00;93337.94;2024146;29;20710;-84
2023/03/04 01:08:13;;;;;;;50.10;28.30;;;;;;;-3.96;100.00;93339.97;2032572;29;20028;-85
2023/03/04 01:09:14;;;;;;;50.88;28.05;;;;;;;-3.90;100.00;93338.69;2040344;29;20118;-84
2023/03/04 01:10:18;;;;;;;47.83;27.73;;;;;;;-3.92;100.00;93327.03;2034445;29;20024;-84
2023/03/04 01:11:19;;;;;;;49.40;28.67;;;;;;;-3.94;100.00;93334.44;2025438;29;20025;-86
2023/03/04 01:12:20;;;;;;;56.28;28.80;;;;;;;-3.95;100.00;93335.50;2028587;29;20095;-84
2023/03/04 01:13:21;;;;;;;47.72;28.08;;;;;;;-3.94;100.00;93327.38;2030909;29;20023;-85
2023/03/04 01:14:22;;;;;;;52.90;29.70;;;;;;;-3.90;100.00;93332.72;2023396;29;20119;-85
2023/03/04 01:15:23;;;;;;;49.70;29.42;;;;;;;-3.92;100.00;93327.81;2033938;29;20024;-83
2023/03/04 01:16:25;;;;;;;53.95;29.10;;;;;;;-3.95;100.00;93335.50;2042629;29;20461;-83
2023/03/04 01:17:26;;;;;;;55.80;29.52;;;;;;;-3.97;100.00;93327.22;2034655;29;20052;-81
2023/03/04 01:18:27;;;;;;;49.33;29.05;;;;;;;-3.91;100.00;93331.16;2042150;29;20118;-83
2023/03/04 01:19:28;;;;;;;55.88;31.13;;;;;;;-3.95;100.00;93325.06;2034689;29;20695;-83
2023/03/04 01:20:29;;;;;;;54.17;29.63;;;;;;;-4.07;100.00;93326.53;2027010;29;20482;-83
2023/03/04 01:21:30;;;;;;;53.45;29.48;;;;;;;-4.11;100.00;93327.50;2027443;29;20017;-84
2023/03/04 01:22:31;;;;;;;51.95;28.92;;;;;;;-4.08;100.00;93332.09;2032203;29;20036;-83
2023/03/04 01:23:32;;;;;;;56.65;29.45;;;;;;;-3.96;100.00;93324.28;2024855;29;20406;-85
2023/03/04 01:24:33;;;;;;;52.10;29.23;;;;;;;-3.94;100.00;93327.38;2036650;29;20020;-86
2023/03/04 01:25:34;;;;;;;57.22;30.27;;;;;;;-4.02;100.00;93325.59;2031891;29;20020;-82
2023/03/04 01:26:35;;;;;;;53.53;29.60;;;;;;;-3.94;100.00;93326.59;2048205;28;20412;-82
2023/03/04 01:27:36;;;;;;;52.67;29.83;;;;;;;-3.98;100.00;93328.31;2050191;28;20015;-84
2023/03/04 01:28:37;;;;;;;55.53;29.98;;;;;;;-4.05;100.00;93328.81;2032293;29;20027;-83
2023/03/04 01:29:38;;;;;;;55.70;29.80;;;;;;;-4.11;100.00;93322.28;2026659;29;20119;-82
2023/03/04 01:30:39;;;;;;;51.72;29.13;;;;;;;-4.09;100.00;93326.06;2040631;29;20031;-82
2023/03/04 01:31:40;;;;;;;53.47;30.13;;;;;;;-4.07;100.00;93320.56;2035950;29;20457;-82
2023/03/04 01:32:41;;;;;;;56.45;30.65;;;;;;;-4.05;100.00;93315.78;2032341;29;20024;-82
2023/03/04 01:33:42;;;;;;;48.22;28.40;;;;;;;-4.08;100.00;93319.78;2032388;29;20032;-86
2023/03/04 01:34:43;;;;;;;53.85;29.63;;;;;;;-4.19;100.00;93323.84;2038300;29;20413;-82
2023/03/04 01:35:44;;;;;;;54.45;29.92;;;;;;;-4.11;100.00;93312.59;2039988;29;20059;-84
2023/03/04 01:36:45;;;;;;;56.03;30.30;;;;;;;-4.05;100.00;93313.91;2041976;29;20027;-84
2023/03/04 01:37:46;;;;;;;53.75;30.38;;;;;;;-4.02;100.00;93315.13;2040178;29;20083;-84
2023/03/04 01:38:47;;;;;;;58.92;30.65;;;;;;;-4.07;100.00;93312.72;2038223;29;20020;-83
2023/03/04 01:39:48;;;;;;;54.50;29.63;;;;;;;-4.09;100.00;93307.03;2032613;29;20895;-82
2023/03/04 01:40:51;;;;;;;55.60;30.88;;;;;;;-4.12;100.00;93310.31;2039958;29;20111;-84
2023/03/04 01:41:53;;;;;;;54.08;30.92;;;;;;;-4.14;100.00;93308.00;2031927;29;20024;-82
2023/03/04 01:42:55;;;;;;;55.45;30.73;;;;;;;-4.09;100.00;93305.19;2032211;29;20024;-82
2023/03/04 01:43:59;;;;;;;59.53;31.67;;;;;;;-4.03;100.00;93307.63;2034043;29;20078;-84
2023/03/04 01:45:02;;;;;;;58.05;30.98;;;;;;;-4.05;100.00;93306.09;2041420;29;20058;-83
2023/03/04 01:46:05;;;;;;;57.03;30.77;;;;;;;-4.08;100.00;93304.13;2039667;29;20042;-85
2023/03/04 01:47:08;;;;;;;54.42;28.67;;;;;;;-4.13;100.00;93306.91;2040047;29;20027;-83
2023/03/04 01:48:12;;;;;;;56.03;30.48;;;;;;;-4.12;100.00;93305.84;2030764;29;20512;-82
2023/03/04 01:49:15;;;;;;;55.58;30.65;;;;;;;-4.11;100.00;93302.16;2030820;29;20583;-83
2023/03/04 01:50:29;;;;;;;55.15;29.83;;;;;;;-4.02;100.00;93298.72;2024684;29;20556;-83
2023/03/04 01:51:30;;;;;;;52.65;29.05;;;;;;;-4.05;100.00;93298.25;2032427;29;20036;-83
2023/03/04 01:52:31;;;;;;;55.85;29.65;;;;;;;-4.14;100.00;93302.78;2032033;29;20046;-83
2023/03/04 01:53:33;;;;;;;54.50;30.40;;;;;;;-4.12;100.00;93302.47;2028541;29;20121;-82
2023/03/04 01:54:33;;;;;;;55.65;30.80;;;;;;;-4.15;100.00;93300.50;2028205;29;20040;-85
2023/03/04 01:55:34;;;;;;;53.67;30.45;;;;;;;-4.16;100.00;93299.75;2039838;28;20027;-83
2023/03/04 01:56:37;;;;;;;54.42;30.00;;;;;;;-4.07;100.00;93303.03;2045648;28;20023;-85
2023/03/04 01:57:38;;;;;;;54.97;29.73;;;;;;;-4.11;100.00;93299.53;2037173;28;20039;-83
2023/03/04 01:58:39;;;;;;;53.60;29.08;;;;;;;-4.09;100.00;93299.22;2031016;29;20039;-83
2023/03/04 01:59:41;;;;;;;59.22;31.73;;;;;;;-4.11;100.00;93289.09;2025700;29;20482;-84
2023/03/04 02:00:42;;;;;;;51.65;30.17;;;;;;;-4.14;100.00;93297.56;2024753;29;20032;-85
2023/03/04 02:01:47;;;;;;;56.13;30.00;;;;;;;-4.15;100.00;93293.44;2023887;29;20379;-84
2023/03/04 02:02:52;;;;;;;52.30;29.23;;;;;;;-4.19;100.00;93295.16;2034972;28;20066;-84
2023/03/04 02:03:54;;;;;;;54.67;29.48;;;;;;;-4.32;100.00;93294.31;2030284;29;20093;-83
2023/03/04 02:04:56;;;;;;;57.67;30.38;;;;;;;-4.29;100.00;93303.38;2022933;29;20032;-86
2023/03/04 02:05:56;;;;;;;54.97;30.95;;;;;;;-4.24;100.00;93297.94;2031455;29;20055;-83
2023/03/04 02:06:59;;;;;;;57.25;30.50;;;;;;;-4.27;100.00;93293.34;2030390;29;20059;-84
2023/03/04 02:08:02;;;;;;;61.40;31.88;;;;;;;-4.27;100.00;93298.56;2026853;29;20060;-84
2023/03/04 02:09:05;;;;;;;56.42;30.90;;;;;;;-4.31;100.00;93297.69;2024955;29;20514;-83
2023/03/04 02:10:07;;;;;;;53.25;29.60;;;;;;;-4.26;100.00;93297.50;2031647;29;20039;-82
2023/03/04 02:11:08;;;;;;;55.20;29.83;;;;;;;-4.40;100.00;93292.53;2026018;29;20098;-81
2023/03/04 02:12:09;;;;;;;51.22;29.05;;;;;;;-4.28;100.00;93286.63;2024054;29;20057;-84
2023/03/04 02:13:12;;;;;;;59.90;31.50;;;;;;;-4.29;100.00;93295.53;2030448;29;20406;-83
2023/03/04 02:14:15;;;;;;;61.15;31.38;;;;;;;-4.38;100.00;93287.78;2039994;29;20035;-83
2023/03/04 02:15:16;;;;;;;58.85;30.00;;;;;;;-4.40;100.00;93286.53;2024722;29;20025;-84
2023/03/04 02:16:18;;;;;;;57.30;30.90;;;;;;;-4.38;100.00;93281.78;2032366;29;20043;-85
2023/03/04 02:19:52;;;;;;;56.22;29.33;;;;;;;-4.32;100.00;93281.28;2112852;27;20206;-75
2023/03/04 02:21:09;;;;;;;53.03;28.30;;;;;;;-4.35;100.00;93284.50;2092260;28;20036;-75
2023/03/04 02:22:11;;;;;;;58.65;30.42;;;;;;;-4.40;100.00;93283.94;2088449;28;20533;-75
2023/03/04 02:23:30;;;;;;;58.17;30.38;;;;;;;-4.38;100.00;93276.56;2088212;28;20522;-75
2023/03/04 02:24:49;;;;;;;53.30;28.92;;;;;;;-4.38;100.00;93277.34;2099750;28;20024;-76
2023/03/04 02:26:16;;;;;;;55.00;29.15;;;;;;;-4.39;100.00;93270.59;2092762;28;20044;-76
2023/03/04 02:27:18;;;;;;;58.72;29.95;;;;;;;-4.35;100.00;93273.31;2080282;28;20116;-75
2023/03/04 02:28:20;;;;;;;53.65;28.60;;;;;;;-4.43;100.00;93266.34;2077404;28;20026;-75
2023/03/04 02:29:23;;;;;;;59.60;29.60;;;;;;;-4.40;100.00;93273.50;2084504;28;20028;-76
2023/03/04 02:30:24;;;;;;;56.83;31.45;;;;;;;-4.39;100.00;93267.19;2092493;28;20510;-76
2023/03/04 02:31:36;;;;;;;59.05;30.33;;;;;;;-4.43;100.00;93268.94;2101983;28;20137;-76
2023/03/04 02:32:37;;;;;;;58.50;30.73;;;;;;;-4.57;100.00;93266.56;2091872;28;20028;-75
2023/03/04 02:33:39;;;;;;;55.72;30.58;;;;;;;-4.54;100.00;93278.22;2094698;28;20029;-75
2023/03/04 02:34:49;;;;;;;58.28;30.75;;;;;;;-4.51;100.00;93257.47;2093962;28;20033;-76
2023/03/04 02:35:50;;;;;;;;;;;;;;;-4.52;100.00;93266.38;2094097;28;20051;-75
2023/03/04 02:36:53;;;;;;;58.42;29.98;;;;;;;-4.52;100.00;93260.38;2085574;28;19924;-75
2023/03/04 02:37:54;;;;;;;59.75;29.67;;;;;;;-4.58;100.00;93262.41;2086077;28;20036;-75
2023/03/04 02:39:04;;;;;;;54.05;29.15;;;;;;;-4.57;100.00;93269.91;2087702;28;20496;-75
2023/03/04 02:40:06;;;;;;;;;;;;;;;-4.53;100.00;93272.66;2082875;28;20033;-75
2023/03/04 02:41:12;;;;;;;54.38;27.25;;;;;;;-4.60;100.00;93272.41;2086085;28;19952;-75
2023/03/04 02:42:15;;;;;;;58.65;29.77;;;;;;;-4.56;100.00;93268.09;2083724;28;20076;-75
2023/03/04 02:43:23;;;;;;;58.72;29.73;;;;;;;-4.65;100.00;93270.75;2079604;28;20037;-76
2023/03/04 02:44:27;;;;;;;56.25;30.33;;;;;;;-4.57;100.00;93266.56;2086279;28;20120;-75
2023/03/04 02:45:41;;;;;;;59.15;30.38;;;;;;;-4.52;100.00;93273.44;2086720;28;20603;-76
2023/03/04 02:46:43;;;;;;;56.60;28.92;;;;;;;-4.49;100.00;93267.59;2092977;28;21695;-75
2023/03/04 02:47:49;;;;;;;65.20;32.17;;;;;;;-4.50;100.00;93274.66;2090195;28;20219;-75
2023/03/04 02:48:59;;;;;;;51.90;28.33;;;;;;;-4.48;100.00;93269.88;2093573;28;20061;-76
2023/03/04 02:50:00;;;;;;;61.97;31.50;;;;;;;-4.59;100.00;93271.34;2086004;28;20056;-75
2023/03/04 02:51:02;;;;;;;57.55;31.33;;;;;;;-4.57;100.00;93262.09;2079544;28;20052;-75
2023/03/04 02:52:13;;;;;;;52.75;29.02;;;;;;;-4.55;100.00;93261.78;2077871;28;20461;-75
2023/03/04 02:53:19;;;;;;;56.15;29.80;;;;;;;-4.63;100.00;93276.41;2078670;28;20033;-75
2023/03/04 02:54:23;;;;;;;57.55;30.98;;;;;;;-4.53;100.00;93267.44;2082935;28;20370;-75
2023/03/04 02:55:27;;;;;;;57.58;30.27;;;;;;;-4.60;100.00;93270.56;2085914;28;20143;-75
2023/03/04 02:56:28;;;;;;;58.72;31.75;;;;;;;-4.59;100.00;93271.34;2092360;28;20032;-75
2023/03/04 02:57:31;;;;;;;58.55;30.50;;;;;;;-4.60;100.00;93265.34;2086061;28;20037;-75
2023/03/04 02:58:32;;;;;;;59.90;31.88;;;;;;;-4.67;100.00;93269.53;2078829;28;20532;-75
2023/03/04 02:59:34;;;;;;;62.15;31.30;;;;;;;-4.66;100.00;93271.81;2085853;28;20436;-75
2023/03/04 03:00:39;;;;;;;58.35;31.30;;;;;;;-4.71;100.00;93274.63;2085997;28;20116;-76
2023/03/04 03:01:41;;;;;;;58.65;31.63;;;;;;;-4.73;100.00;93270.81;2093785;28;20098;-74
2023/03/04 03:02:42;;;;;;;63.10;31.42;;;;;;;-4.67;100.00;93272.91;2082522;28;20040;-76
2023/03/04 03:03:44;;;;;;;60.40;31.77;;;;;;;-4.67;100.00;93274.75;2074797;28;20030;-76
2023/03/04 03:04:45;;;;;;;59.70;31.88;;;;;;;-4.65;100.00;93270.00;2077264;28;20142;-76
2023/03/04 03:05:47;;;;;;;57.75;30.83;;;;;;;-4.70;100.00;93270.16;2084880;28;20153;-76
2023/03/04 03:06:50;;;;;;;60.75;30.92;;;;;;;-4.67;100.00;93272.16;2091522;28;20055;-75
2023/03/04 03:07:54;;;;;;;59.38;31.63;;;;;;;-4.65;100.00;93267.38;2092225;28;20518;-75
2023/03/04 03:08:56;;;;;;;66.55;32.13;;;;;;;-4.68;100.00;93268.00;2085643;28;20095;-75
2023/03/04 03:09:58;;;;;;;57.55;30.75;;;;;;;-4.68;100.00;93271.38;2093868;28;20222;-75
2023/03/04 03:11:02;;;;;;;63.55;31.52;;;;;;;-4.66;100.00;93277.03;2081400;28;20112;-76
2023/03/04 03:12:09;;;;;;;64.55;30.60;;;;;;;-4.77;100.00;93270.69;2082073;28;20091;-76
2023/03/04 03:13:10;;;;;;;57.28;31.42;;;;;;;-4.71;100.00;93268.63;2081502;28;20030;-76
2023/03/04 03:14:12;;;;;;;60.30;30.17;;;;;;;-4.73;100.00;93268.19;2077030;28;20112;-76
2023/03/04 03:15:14;;;;;;;59.90;31.33;;;;;;;-4.68;100.00;93268.78;2085936;28;20044;-75
2023/03/04 03:16:19;;;;;;;63.33;32.13;;;;;;;-4.70;100.00;93270.91;2085143;28;20079;-76
2023/03/04 03:17:24;;;;;;;65.28;32.78;;;;;;;-4.73;100.00;93268.97;2076723;28;20030;-76
2023/03/04 03:18:26;;;;;;;67.22;33.30;;;;;;;-4.70;100.00;93265.72;2086034;28;20041;-76
2023/03/04 03:19:28;;;;;;;63.80;32.47;;;;;;;-4.69;100.00;93274.31;2067249;28;20081;-75
2023/03/04 03:20:29;;;;;;;60.47;31.25;;;;;;;-4.70;100.00;93265.72;2071227;28;20030;-75
2023/03/04 03:21:31;;;;;;;57.45;31.10;;;;;;;-4.77;100.00;93270.69;2068589;28;20050;-75
2023/03/04 03:22:36;;;;;;;63.83;31.70;;;;;;;-4.81;100.00;93269.78;2073014;28;20025;-75
2023/03/04 03:23:37;;;;;;;60.53;31.38;;;;;;;-4.79;100.00;93274.66;2075569;28;20739;-75
2023/03/04 03:24:39;;;;;;;57.40;31.52;;;;;;;-4.85;100.00;93263.66;2077152;28;20017;-75
2023/03/04 03:25:41;;;;;;;63.60;32.33;;;;;;;-4.81;100.00;93264.56;2077140;28;20037;-75
2023/03/04 03:26:44;;;;;;;59.75;31.50;;;;;;;-4.80;100.00;93271.28;2075775;28;20184;-75
2023/03/04 03:27:49;;;;;;;62.10;31.85;;;;;;;-4.75;100.00;93273.72;2073252;28;20049;-76
2023/03/04 03:28:58;;;;;;;60.05;31.48;;;;;;;-4.76;100.00;93266.22;2067638;28;20030;-76
2023/03/04 03:30:07;;;;;;;65.97;32.35;;;;;;;-4.73;100.00;93268.97;2068933;28;20113;-76
2023/03/04 03:31:12;;;;;;;61.80;32.72;;;;;;;-4.72;100.00;93264.50;2078031;28;20068;-76
2023/03/04 03:32:13;;;;;;;64.35;31.92;;;;;;;-4.72;100.00;93264.50;2077894;28;20429;-75
2023/03/04 03:33:15;;;;;;;62.03;30.55;;;;;;;-4.71;100.00;93263.44;2069008;28;20077;-75
2023/03/04 03:34:16;;;;;;;64.63;32.17;;;;;;;-4.79;100.00;93262.38;2070368;28;20033;-77
2023/03/04 03:35:18;;;;;;;61.45;32.10;;;;;;;-4.83;100.00;93266.69;2063187;28;20042;-76
2023/03/04 03:36:20;;;;;;;58.97;31.90;;;;;;;-4.80;100.00;93266.09;2059485;28;20037;-76
2023/03/04 03:37:21;;;;;;;65.30;32.78;;;;;;;-4.78;100.00;93263.16;2063765;28;20035;-76
2023/03/04 03:38:22;;;;;;;66.45;33.95;;;;;;;-4.85;100.00;93271.47;2071896;28;20431;-76
2023/03/04 03:39:49;;;;;;;63.50;33.15;;;;;;;-4.81;100.00;93265.31;2085683;28;20103;-76
2023/03/04 03:41:02;;;;;;;60.42;31.98;;;;;;;-4.87;100.00;93263.97;2085365;28;20056;-75
2023/03/04 03:42:15;;;;;;;58.00;30.90;;;;;;;-4.94;100.00;93260.34;2088279;28;20037;-75
2023/03/04 03:43:44;;;;;;;60.50;32.33;;;;;;;-4.85;100.00;93263.66;2078321;28;20033;-75
2023/03/04 03:44:51;;;;;;;62.20;30.48;;;;;;;-4.83;100.00;93266.69;2081293;28;20044;-76
2023/03/04 03:46:10;;;;;;;60.97;30.73;;;;;;;-4.76;100.00;93263.63;2077697;28;20040;-76
2023/03/04 03:47:37;;;;;;;64.50;31.60;;;;;;;-4.82;100.00;93265.66;2078165;28;20144;-76
2023/03/04 03:49:06;;;;;;;65.18;31.35;;;;;;;-4.82;100.00;93263.81;2076829;28;20048;-75
2023/03/04 03:50:09;;;;;;;60.45;30.23;;;;;;;-4.82;100.00;93278.69;2073156;28;20039;-76
2023/03/04 03:51:11;;;;;;;57.38;30.10;;;;;;;-4.85;100.00;93267.03;2071737;28;20127;-75
2023/03/04 03:52:13;;;;;;;65.65;30.67;;;;;;;-4.83;100.00;93270.09;2071116;28;20506;-75
2023/03/04 03:53:15;;;;;;;65.82;32.35;;;;;;;-4.80;100.00;93271.28;2070866;28;20034;-75
2023/03/04 03:54:17;;;;;;;60.53;31.48;;;;;;;-4.79;100.00;93278.03;2066861;28;20059;-77
2023/03/04 03:55:19;;;;;;;64.97;33.03;;;;;;;-4.78;100.00;93270.97;2063316;28;20034;-74
2023/03/04 03:56:28;;;;;;;62.40;32.55;;;;;;;-4.86;100.00;93275.16;2076761;28;20038;-77
2023/03/04 03:57:35;;;;;;;70.45;33.00;;;;;;;-4.88;100.00;93272.09;2067609;28;20058;-75
2023/03/04 03:58:37;;;;;;;63.35;32.67;;;;;;;-4.92;100.00;93271.19;2060970;28;20023;-75
2023/03/04 03:59:38;;;;;;;61.70;31.60;;;;;;;-4.84;100.00;93268.56;2067645;28;20026;-75
2023/03/04 04:00:39;;;;;;;65.95;33.28;;;;;;;-4.89;100.00;93270.56;2069137;28;20103;-74
2023/03/04 04:01:41;;;;;;;66.63;32.92;;;;;;;-4.84;100.00;93273.00;2069899;28;20037;-75
2023/03/04 04:02:42;;;;;;;67.10;32.78;;;;;;;-4.94;100.00;93275.97;2070174;28;20431;-75
2023/03/04 04:03:44;;;;;;;69.40;33.25;;;;;;;-4.99;100.00;93268.34;2074352;28;20456;-74
2023/03/04 04:04:44;;;;;;;67.32;34.40;;;;;;;-5.03;100.00;93270.81;2076661;28;20029;-75
2023/03/04 04:05:45;;;;;;;67.10;33.55;;;;;;;-4.95;100.00;93271.84;2079777;28;20057;-75
2023/03/04 04:06:46;;;;;;;64.68;33.47;;;;;;;-4.99;100.00;93268.34;2087302;28;20581;-74
2023/03/04 04:07:49;;;;;;;66.45;33.72;;;;;;;-4.94;100.00;93270.75;2066560;28;20465;-75
2023/03/04 04:08:50;;;;;;;65.32;33.85;;;;;;;-4.95;100.00;93274.44;2061882;28;20026;-74
2023/03/04 04:09:52;;;;;;;67.03;33.40;;;;;;;-4.97;100.00;93276.59;2071534;28;20037;-75
2023/03/04 04:10:53;;;;;;;68.90;34.60;;;;;;;-4.97;100.00;93269.53;2081568;28;20164;-75
2023/03/04 04:11:55;;;;;;;67.72;34.15;;;;;;;-4.94;100.00;93270.75;2071062;28;20057;-75
2023/03/04 04:12:56;;;;;;;72.07;35.95;;;;;;;-4.98;100.00;93272.47;2063418;28;20026;-76
2023/03/04 04:13:58;;;;;;;73.75;36.00;;;;;;;-5.07;100.00;93273.25;2071031;28;20065;-75
2023/03/04 04:14:59;;;;;;;68.43;33.72;;;;;;;-4.98;100.00;93280.28;2079793;28;20080;-75
2023/03/04 04:16:00;;;;;;;75.03;35.17;;;;;;;-4.96;100.00;93270.28;2071587;28;20048;-75
2023/03/04 04:17:02;;;;;;;71.38;35.25;;;;;;;-4.93;100.00;93272.28;2063474;28;20030;-75
2023/03/04 04:18:04;;;;;;;66.88;35.00;;;;;;;-4.93;100.00;93272.28;2071682;28;20092;-75
2023/03/04 04:19:10;;;;;;;67.90;34.78;;;;;;;-4.94;100.00;93276.75;2079105;28;20099;-75
2023/03/04 04:20:12;;;;;;;72.45;35.05;;;;;;;-5.00;100.00;93279.81;2078915;28;20105;-76
2023/03/04 04:21:14;;;;;;;63.47;33.45;;;;;;;-4.97;100.00;93272.13;2068253;28;21045;-75
2023/03/04 04:22:19;;;;;;;69.85;34.03;;;;;;;-4.91;100.00;93278.72;2062464;28;20153;-76
2023/03/04 04:23:21;;;;;;;67.15;33.75;;;;;;;-5.01;100.00;93273.09;2061498;28;20039;-76
2023/03/04 04:24:23;;;;;;;61.78;32.80;;;;;;;-4.99;100.00;93278.75;2060475;28;20477;-76
2023/03/04 04:25:28;;;;;;;67.50;34.15;;;;;;;-5.03;100.00;93277.84;2079993;28;20084;-75
2023/03/04 04:26:29;;;;;;;65.68;32.65;;;;;;;-4.93;100.00;93280.09;2080010;28;20029;-73
2023/03/04 04:27:30;;;;;;;71.05;34.72;;;;;;;-4.98;100.00;93272.47;2087791;28;20048;-75
2023/03/04 04:28:31;;;;;;;66.07;33.63;;;;;;;-4.94;100.00;93276.75;2086185;28;20044;-74
2023/03/04 04:29:32;;;;;;;69.38;34.00;;;;;;;-4.94;100.00;93274.13;2075710;28;20018;-74
2023/03/04 04:30:34;;;;;;;66.97;33.75;;;;;;;-5.00;100.00;93275.41;2063551;28;20057;-75
2023/03/04 04:31:36;;;;;;;69.28;32.80;;;;;;;-5.00;100.00;93279.81;2071036;28;20041;-75
2023/03/04 04:32:37;;;;;;;69.78;35.40;;;;;;;-5.00;100.00;93272.00;2076928;28;20064;-76
2023/03/04 04:33:38;;;;;;;67.50;33.95;;;;;;;-5.03;100.00;93277.84;2079035;28;20437;-76
2023/03/04 04:34:40;;;;;;;64.85;33.65;;;;;;;-5.00;100.00;93277.22;2078951;28;20025;-75
2023/03/04 04:35:42;;;;;;;67.78;33.88;;;;;;;-5.11;100.00;93280.19;2069516;28;20459;-75
2023/03/04 04:36:45;;;;;;;71.20;34.25;;;;;;;-5.14;100.00;93269.63;2064591;28;20034;-74
2023/03/04 04:37:46;;;;;;;70.60;33.03;;;;;;;-5.17;100.00;93273.63;2071974;28;20030;-76
2023/03/04 04:38:48;;;;;;;69.85;34.65;;;;;;;-5.14;100.00;93277.44;2068946;28;20037;-75
2023/03/04 04:39:50;;;;;;;64.25;32.58;;;;;;;-5.12;100.00;93276.06;2070904;28;20018;-75
2023/03/04 04:40:53;;;;;;;61.58;34.67;;;;;;;-5.05;100.00;93272.94;2070995;28;20056;-76
2023/03/04 04:41:54;;;;;;;68.55;34.10;;;;;;;-5.08;100.00;93274.34;2077029;28;20037;-74
2023/03/04 04:42:55;;;;;;;69.93;34.92;;;;;;;-5.08;100.00;93273.59;2088130;28;20037;-75
2023/03/04 04:43:57;;;;;;;70.38;33.80;;;;;;;-5.00;100.00;93283.22;2065816;28;20460;-74
2023/03/04 04:44:59;;;;;;;68.00;34.65;;;;;;;-4.96;100.00;93280.72;2068014;28;20036;-77
2023/03/04 04:46:02;;;;;;;68.30;34.45;;;;;;;-4.97;100.00;93277.34;2066049;28;20026;-75
2023/03/04 04:47:06;;;;;;;69.10;33.63;;;;;;;-5.00;100.00;93275.41;2064960;28;20026;-74
2023/03/04 04:48:15;;;;;;;68.13;33.70;;;;;;;-5.00;100.00;93280.59;2071370;28;20030;-75
2023/03/04 04:49:17;;;;;;;69.63;33.70;;;;;;;-5.11;100.00;93282.03;2072131;28;20034;-75